sensor_id;sensor_type;location;lat;lon;timestamp;temperature;humidity
3944;DHT22;1986;52.546;13.428;2023-05-19T00:02:24;8.90;99.90
3944;DHT22;1986;52.546;13.428;2023-05-19T00:04:52;8.90;99.90
3944;DHT22;1986;52.546;13.428;2023-05-19T00:07:21;8.80;99.90
3944;DHT22;1986;52.546;13.428;2023-05-19T00:09:50;8.80;99.90
3944;DHT22;1986;52.546;13.428;2023-05-19T00:12:17;8.80;99.90
3944;DHT22;1986;52.546;13.428;2023-05-19T00:14:46;8.70;99.90
3944;DHT22;1986;52.546;13.428;2023-05-19T00:17:13;8.70;99.90
3944;DHT22;1986;52.546;13.428;2023-05-19T00:19:41;8.70;99.90
3944;DHT22;1986;52.546;13.428;2023-05-19T00:22:09;8.60;99.90
3944;DHT22;1986;52.546;13.428;2023-05-19T00:24:36;8.60;99.90
3944;DHT22;1986;52.546;13.428;2023-05-19T00:27:03;8.60;99.90
3944;DHT22;1986;52.546;13.428;2023-05-19T00:29:30;8.60;99.90
3944;DHT22;1986;52.546;13.428;2023-05-19T00:31:59;8.50;99.90
3944;DHT22;1986;52.546;13.428;2023-05-19T00:34:26;8.50;99.90
3944;DHT22;1986;52.546;13.428;2023-05-19T00:36:52;8.40;99.90
3944;DHT22;1986;52.546;13.428;2023-05-19T00:39:19;8.40;99.90
3944;DHT22;1986;52.546;13.428;2023-05-19T00:41:46;8.40;99.90
3944;DHT22;1986;52.546;13.428;2023-05-19T00:44:13;8.40;99.90
3944;DHT22;1986;52.546;13.428;2023-05-19T00:46:40;8.40;99.90
3944;DHT22;1986;52.546;13.428;2023-05-19T00:49:08;8.30;99.90
3944;DHT22;1986;52.546;13.428;2023-05-19T00:51:36;8.30;99.90
3944;DHT22;1986;52.546;13.428;2023-05-19T00:54:03;8.30;99.90
3944;DHT22;1986;52.546;13.428;2023-05-19T00:56:30;8.20;99.90
3944;DHT22;1986;52.546;13.428;2023-05-19T00:58:57;8.20;99.90
3944;DHT22;1986;52.546;13.428;2023-05-19T01:01:25;8.20;99.90
3944;DHT22;1986;52.546;13.428;2023-05-19T01:03:52;8.20;99.90
3944;DHT22;1986;52.546;13.428;2023-05-19T01:06:22;8.20;99.90
3944;DHT22;1986;52.546;13.428;2023-05-19T01:08:50;8.20;99.90
3944;DHT22;1986;52.546;13.428;2023-05-19T01:11:22;8.20;99.90
3944;DHT22;1986;52.546;13.428;2023-05-19T01:13:49;8.10;99.90
3944;DHT22;1986;52.546;13.428;2023-05-19T01:16:22;8.10;99.90
3944;DHT22;1986;52.546;13.428;2023-05-19T01:18:58;8.10;99.90
3944;DHT22;1986;52.546;13.428;2023-05-19T01:22:05;8.00;99.90
3944;DHT22;1986;52.546;13.428;2023-05-19T01:25:22;8.00;99.90
3944;DHT22;1986;52.546;13.428;2023-05-19T01:28:17;7.90;99.90
3944;DHT22;1986;52.546;13.428;2023-05-19T01:30:54;7.90;99.90
3944;DHT22;1986;52.546;13.428;2023-05-19T01:33:24;7.80;99.90
3944;DHT22;1986;52.546;13.428;2023-05-19T01:35:52;7.80;99.90
3944;DHT22;1986;52.546;13.428;2023-05-19T01:38:21;7.80;99.90
3944;DHT22;1986;52.546;13.428;2023-05-19T01:40:49;7.70;99.90
3944;DHT22;1986;52.546;13.428;2023-05-19T01:43:19;7.70;99.90
3944;DHT22;1986;52.546;13.428;2023-05-19T01:45:47;7.70;99.90
3944;DHT22;1986;52.546;13.428;2023-05-19T01:48:17;7.70;99.90
3944;DHT22;1986;52.546;13.428;2023-05-19T01:50:46;7.70;99.90
3944;DHT22;1986;52.546;13.428;2023-05-19T01:53:13;7.70;99.90
3944;DHT22;1986;52.546;13.428;2023-05-19T01:55:44;7.60;99.90
3944;DHT22;1986;52.546;13.428;2023-05-19T01:58:17;7.60;99.90
3944;DHT22;1986;52.546;13.428;2023-05-19T02:00:52;7.60;99.90
3944;DHT22;1986;52.546;13.428;2023-05-19T02:03:33;7.50;99.90
3944;DHT22;1986;52.546;13.428;2023-05-19T02:06:12;7.50;99.90
3944;DHT22;1986;52.546;13.428;2023-05-19T02:08:43;7.50;99.90
3944;DHT22;1986;52.546;13.428;2023-05-19T02:11:16;7.50;99.90
3944;DHT22;1986;52.546;13.428;2023-05-19T02:13:48;7.40;99.90
3944;DHT22;1986;52.546;13.428;2023-05-19T02:16:16;7.50;99.90
3944;DHT22;1986;52.546;13.428;2023-05-19T02:18:45;7.50;99.90
3944;DHT22;1986;52.546;13.428;2023-05-19T02:21:12;7.40;99.90
3944;DHT22;1986;52.546;13.428;2023-05-19T02:23:40;7.40;99.90
3944;DHT22;1986;52.546;13.428;2023-05-19T02:26:07;7.40;99.90
3944;DHT22;1986;52.546;13.428;2023-05-19T02:28:34;7.40;99.90
3944;DHT22;1986;52.546;13.428;2023-05-19T02:31:02;7.40;99.90
3944;DHT22;1986;52.546;13.428;2023-05-19T02:33:33;7.40;99.90
3944;DHT22;1986;52.546;13.428;2023-05-19T02:36:04;7.30;99.90
3944;DHT22;1986;52.546;13.428;2023-05-19T02:38:31;7.30;99.90
3944;DHT22;1986;52.546;13.428;2023-05-19T02:40:58;7.30;99.90
3944;DHT22;1986;52.546;13.428;2023-05-19T02:43:25;7.30;99.90
3944;DHT22;1986;52.546;13.428;2023-05-19T02:45:55;7.40;99.90
3944;DHT22;1986;52.546;13.428;2023-05-19T02:48:24;7.40;99.90
3944;DHT22;1986;52.546;13.428;2023-05-19T02:50:51;7.40;99.90
3944;DHT22;1986;52.546;13.428;2023-05-19T02:53:20;7.40;99.90
3944;DHT22;1986;52.546;13.428;2023-05-19T02:55:49;7.40;99.90
3944;DHT22;1986;52.546;13.428;2023-05-19T02:58:16;7.40;99.90
3944;DHT22;1986;52.546;13.428;2023-05-19T03:00:44;7.40;99.90
3944;DHT22;1986;52.546;13.428;2023-05-19T03:03:11;7.40;99.90
3944;DHT22;1986;52.546;13.428;2023-05-19T03:05:40;7.30;99.90
3944;DHT22;1986;52.546;13.428;2023-05-19T03:08:07;7.30;99.90
3944;DHT22;1986;52.546;13.428;2023-05-19T03:10:36;7.40;99.90
3944;DHT22;1986;52.546;13.428;2023-05-19T03:13:03;7.40;99.90
3944;DHT22;1986;52.546;13.428;2023-05-19T03:15:31;7.40;99.90
3944;DHT22;1986;52.546;13.428;2023-05-19T03:17:58;7.40;99.90
3944;DHT22;1986;52.546;13.428;2023-05-19T03:20:26;7.40;99.90
3944;DHT22;1986;52.546;13.428;2023-05-19T03:22:55;7.40;99.90
3944;DHT22;1986;52.546;13.428;2023-05-19T03:25:22;7.40;99.90
3944;DHT22;1986;52.546;13.428;2023-05-19T03:27:50;7.40;99.90
3944;DHT22;1986;52.546;13.428;2023-05-19T03:30:17;7.40;99.90
3944;DHT22;1986;52.546;13.428;2023-05-19T03:32:44;7.40;99.90
3944;DHT22;1986;52.546;13.428;2023-05-19T03:35:11;7.40;99.90
3944;DHT22;1986;52.546;13.428;2023-05-19T03:37:38;7.40;99.90
3944;DHT22;1986;52.546;13.428;2023-05-19T03:40:06;7.50;99.90
3944;DHT22;1986;52.546;13.428;2023-05-19T03:42:33;7.50;99.90
3944;DHT22;1986;52.546;13.428;2023-05-19T03:45:01;7.50;99.90
3944;DHT22;1986;52.546;13.428;2023-05-19T03:47:29;7.50;99.90
3944;DHT22;1986;52.546;13.428;2023-05-19T03:49:56;7.50;99.90
3944;DHT22;1986;52.546;13.428;2023-05-19T03:52:23;7.60;99.90
3944;DHT22;1986;52.546;13.428;2023-05-19T03:54:50;7.50;99.90
3944;DHT22;1986;52.546;13.428;2023-05-19T03:57:17;7.60;99.90
3944;DHT22;1986;52.546;13.428;2023-05-19T03:59:45;7.60;99.90
3944;DHT22;1986;52.546;13.428;2023-05-19T04:02:13;7.70;99.90
3944;DHT22;1986;52.546;13.428;2023-05-19T04:04:40;7.70;99.90
3944;DHT22;1986;52.546;13.428;2023-05-19T04:07:07;7.70;99.90
3944;DHT22;1986;52.546;13.428;2023-05-19T04:09:34;7.70;99.90
3944;DHT22;1986;52.546;13.428;2023-05-19T04:12:02;7.80;99.90
3944;DHT22;1986;52.546;13.428;2023-05-19T04:14:29;7.80;99.90
3944;DHT22;1986;52.546;13.428;2023-05-19T04:16:56;7.80;99.90
3944;DHT22;1986;52.546;13.428;2023-05-19T04:19:24;7.90;99.90
3944;DHT22;1986;52.546;13.428;2023-05-19T04:21:51;7.90;99.90
3944;DHT22;1986;52.546;13.428;2023-05-19T04:24:18;7.90;99.90
3944;DHT22;1986;52.546;13.428;2023-05-19T04:26:45;8.00;99.90
3944;DHT22;1986;52.546;13.428;2023-05-19T04:29:14;8.00;99.90
3944;DHT22;1986;52.546;13.428;2023-05-19T04:31:42;8.10;99.90
3944;DHT22;1986;52.546;13.428;2023-05-19T04:34:09;8.20;99.90
3944;DHT22;1986;52.546;13.428;2023-05-19T04:36:38;8.30;99.90
3944;DHT22;1986;52.546;13.428;2023-05-19T04:39:04;8.30;99.90
3944;DHT22;1986;52.546;13.428;2023-05-19T04:41:35;8.40;99.90
3944;DHT22;1986;52.546;13.428;2023-05-19T04:44:04;8.50;99.90
3944;DHT22;1986;52.546;13.428;2023-05-19T04:46:32;8.50;99.90
3944;DHT22;1986;52.546;13.428;2023-05-19T04:49:00;8.60;99.90
3944;DHT22;1986;52.546;13.428;2023-05-19T04:51:27;8.60;99.90
3944;DHT22;1986;52.546;13.428;2023-05-19T04:53:57;8.70;99.90
3944;DHT22;1986;52.546;13.428;2023-05-19T04:56:24;8.80;99.90
3944;DHT22;1986;52.546;13.428;2023-05-19T04:58:51;8.90;99.90
3944;DHT22;1986;52.546;13.428;2023-05-19T05:01:19;9.00;99.90
3944;DHT22;1986;52.546;13.428;2023-05-19T05:03:50;9.10;99.90
3944;DHT22;1986;52.546;13.428;2023-05-19T05:06:19;9.10;99.90
3944;DHT22;1986;52.546;13.428;2023-05-19T05:08:46;9.40;99.90
3944;DHT22;1986;52.546;13.428;2023-05-19T05:11:15;9.60;99.90
3944;DHT22;1986;52.546;13.428;2023-05-19T05:13:43;9.80;99.90
3944;DHT22;1986;52.546;13.428;2023-05-19T05:16:12;9.90;99.90
3944;DHT22;1986;52.546;13.428;2023-05-19T05:18:41;9.90;99.90
3944;DHT22;1986;52.546;13.428;2023-05-19T05:21:09;10.20;99.90
3944;DHT22;1986;52.546;13.428;2023-05-19T05:23:36;10.20;99.90
3944;DHT22;1986;52.546;13.428;2023-05-19T05:26:16;10.40;99.90
3944;DHT22;1986;52.546;13.428;2023-05-19T05:28:44;10.50;99.90
3944;DHT22;1986;52.546;13.428;2023-05-19T05:31:11;10.80;99.90
3944;DHT22;1986;52.546;13.428;2023-05-19T05:33:38;10.80;99.90
3944;DHT22;1986;52.546;13.428;2023-05-19T05:36:06;10.90;99.90
3944;DHT22;1986;52.546;13.428;2023-05-19T05:38:39;11.00;99.90
3944;DHT22;1986;52.546;13.428;2023-05-19T05:41:09;10.80;99.90
3944;DHT22;1986;52.546;13.428;2023-05-19T05:43:40;10.90;99.90
3944;DHT22;1986;52.546;13.428;2023-05-19T05:46:09;11.00;99.90
3944;DHT22;1986;52.546;13.428;2023-05-19T05:48:36;11.20;99.90
3944;DHT22;1986;52.546;13.428;2023-05-19T05:51:04;11.20;99.90
3944;DHT22;1986;52.546;13.428;2023-05-19T05:56:20;11.40;99.90
3944;DHT22;1986;52.546;13.428;2023-05-19T05:59:10;11.70;99.90
3944;DHT22;1986;52.546;13.428;2023-05-19T06:01:52;12.00;99.90
3944;DHT22;1986;52.546;13.428;2023-05-19T06:04:19;12.40;99.90
3944;DHT22;1986;52.546;13.428;2023-05-19T06:06:46;12.60;99.90
3944;DHT22;1986;52.546;13.428;2023-05-19T06:09:13;12.70;99.90
3944;DHT22;1986;52.546;13.428;2023-05-19T06:11:46;12.90;99.90
3944;DHT22;1986;52.546;13.428;2023-05-19T06:14:17;12.70;99.90
3944;DHT22;1986;52.546;13.428;2023-05-19T06:16:44;12.70;99.90
3944;DHT22;1986;52.546;13.428;2023-05-19T06:19:12;13.10;99.90
3944;DHT22;1986;52.546;13.428;2023-05-19T06:21:39;13.30;99.90
3944;DHT22;1986;52.546;13.428;2023-05-19T06:24:07;13.50;99.90
3944;DHT22;1986;52.546;13.428;2023-05-19T06:26:34;13.60;99.90
3944;DHT22;1986;52.546;13.428;2023-05-19T06:29:01;13.50;99.90
3944;DHT22;1986;52.546;13.428;2023-05-19T06:31:31;13.20;99.90
3944;DHT22;1986;52.546;13.428;2023-05-19T06:33:58;13.60;99.90
3944;DHT22;1986;52.546;13.428;2023-05-19T06:36:26;14.30;99.90
3944;DHT22;1986;52.546;13.428;2023-05-19T06:38:53;14.50;99.90
3944;DHT22;1986;52.546;13.428;2023-05-19T06:41:21;14.60;99.90
3944;DHT22;1986;52.546;13.428;2023-05-19T06:43:50;14.40;99.90
3944;DHT22;1986;52.546;13.428;2023-05-19T06:46:17;14.30;99.90
3944;DHT22;1986;52.546;13.428;2023-05-19T06:48:50;14.50;99.90
3944;DHT22;1986;52.546;13.428;2023-05-19T06:51:17;14.60;99.90
3944;DHT22;1986;52.546;13.428;2023-05-19T06:53:46;14.90;99.90
3944;DHT22;1986;52.546;13.428;2023-05-19T06:56:13;14.60;99.90
3944;DHT22;1986;52.546;13.428;2023-05-19T06:58:41;14.80;99.90
3944;DHT22;1986;52.546;13.428;2023-05-19T07:01:08;15.20;99.90
3944;DHT22;1986;52.546;13.428;2023-05-19T07:03:36;14.90;99.90
3944;DHT22;1986;52.546;13.428;2023-05-19T07:06:05;15.20;99.90
3944;DHT22;1986;52.546;13.428;2023-05-19T07:08:32;15.70;99.90
3944;DHT22;1986;52.546;13.428;2023-05-19T07:10:59;15.90;99.90
3944;DHT22;1986;52.546;13.428;2023-05-19T07:13:26;16.00;99.90
3944;DHT22;1986;52.546;13.428;2023-05-19T07:15:53;15.70;99.90
3944;DHT22;1986;52.546;13.428;2023-05-19T07:18:21;15.80;99.90
3944;DHT22;1986;52.546;13.428;2023-05-19T07:20:48;15.80;99.90
3944;DHT22;1986;52.546;13.428;2023-05-19T07:23:21;16.00;99.90
3944;DHT22;1986;52.546;13.428;2023-05-19T07:25:52;16.10;99.90
3944;DHT22;1986;52.546;13.428;2023-05-19T07:28:19;16.00;99.90
3944;DHT22;1986;52.546;13.428;2023-05-19T07:30:46;16.20;99.90
3944;DHT22;1986;52.546;13.428;2023-05-19T07:33:14;16.30;99.90
3944;DHT22;1986;52.546;13.428;2023-05-19T07:35:41;16.30;99.90
3944;DHT22;1986;52.546;13.428;2023-05-19T07:38:10;16.00;99.90
3944;DHT22;1986;52.546;13.428;2023-05-19T07:40:39;15.90;99.90
3944;DHT22;1986;52.546;13.428;2023-05-19T07:43:06;15.80;99.90
3944;DHT22;1986;52.546;13.428;2023-05-19T07:45:33;16.10;99.90
3944;DHT22;1986;52.546;13.428;2023-05-19T07:48:00;16.10;99.90
3944;DHT22;1986;52.546;13.428;2023-05-19T07:50:26;16.50;99.90
3944;DHT22;1986;52.546;13.428;2023-05-19T07:52:53;16.80;99.90
3944;DHT22;1986;52.546;13.428;2023-05-19T07:55:21;16.60;99.90
3944;DHT22;1986;52.546;13.428;2023-05-19T07:57:50;17.50;99.30
3944;DHT22;1986;52.546;13.428;2023-05-19T08:00:20;17.60;98.00
3944;DHT22;1986;52.546;13.428;2023-05-19T08:02:48;17.80;97.60
3944;DHT22;1986;52.546;13.428;2023-05-19T08:05:17;18.00;96.20
3944;DHT22;1986;52.546;13.428;2023-05-19T08:07:44;18.20;95.80
3944;DHT22;1986;52.546;13.428;2023-05-19T08:10:11;18.00;95.80
3944;DHT22;1986;52.546;13.428;2023-05-19T08:12:38;19.10;95.10
3944;DHT22;1986;52.546;13.428;2023-05-19T08:15:07;19.10;92.30
3944;DHT22;1986;52.546;13.428;2023-05-19T08:17:36;18.80;93.70
3944;DHT22;1986;52.546;13.428;2023-05-19T08:20:03;17.90;92.50
3944;DHT22;1986;52.546;13.428;2023-05-19T08:22:33;17.90;95.50
3944;DHT22;1986;52.546;13.428;2023-05-19T08:25:02;19.50;95.30
3944;DHT22;1986;52.546;13.428;2023-05-19T08:27:30;20.10;92.40
3944;DHT22;1986;52.546;13.428;2023-05-19T08:29:57;20.70;89.60
3944;DHT22;1986;52.546;13.428;2023-05-19T08:32:26;20.10;86.40
3944;DHT22;1986;52.546;13.428;2023-05-19T08:34:53;20.10;83.90
3944;DHT22;1986;52.546;13.428;2023-05-19T08:37:21;18.70;81.60
3944;DHT22;1986;52.546;13.428;2023-05-19T08:39:50;17.40;87.50
3944;DHT22;1986;52.546;13.428;2023-05-19T08:42:17;17.20;90.60
3944;DHT22;1986;52.546;13.428;2023-05-19T08:44:44;17.20;92.20
3944;DHT22;1986;52.546;13.428;2023-05-19T08:47:11;17.00;91.90
3944;DHT22;1986;52.546;13.428;2023-05-19T08:49:44;17.10;92.80
3944;DHT22;1986;52.546;13.428;2023-05-19T08:52:18;16.80;92.50
3944;DHT22;1986;52.546;13.428;2023-05-19T08:54:53;17.10;93.00
3944;DHT22;1986;52.546;13.428;2023-05-19T08:57:26;17.30;91.60
3944;DHT22;1986;52.546;13.428;2023-05-19T08:59:55;17.30;90.90
3944;DHT22;1986;52.546;13.428;2023-05-19T09:02:23;17.20;91.00
3944;DHT22;1986;52.546;13.428;2023-05-19T09:04:51;17.10;90.80
3944;DHT22;1986;52.546;13.428;2023-05-19T09:07:22;17.40;90.90
3944;DHT22;1986;52.546;13.428;2023-05-19T09:09:50;17.60;90.80
3944;DHT22;1986;52.546;13.428;2023-05-19T09:12:18;17.50;89.90
3944;DHT22;1986;52.546;13.428;2023-05-19T09:14:47;17.30;90.60
3944;DHT22;1986;52.546;13.428;2023-05-19T09:17:14;17.60;91.20
3944;DHT22;1986;52.546;13.428;2023-05-19T09:19:43;17.90;90.80
3944;DHT22;1986;52.546;13.428;2023-05-19T09:22:17;17.40;90.40
3944;DHT22;1986;52.546;13.428;2023-05-19T09:24:46;17.10;90.30
3944;DHT22;1986;52.546;13.428;2023-05-19T09:27:20;17.00;89.90
3944;DHT22;1986;52.546;13.428;2023-05-19T09:29:53;17.00;89.40
3944;DHT22;1986;52.546;13.428;2023-05-19T09:32:26;16.90;88.20
3944;DHT22;1986;52.546;13.428;2023-05-19T09:35:01;17.00;88.70
3944;DHT22;1986;52.546;13.428;2023-05-19T09:37:38;17.00;88.60
3944;DHT22;1986;52.546;13.428;2023-05-19T09:40:21;17.20;88.70
3944;DHT22;1986;52.546;13.428;2023-05-19T09:43:08;17.40;88.00
3944;DHT22;1986;52.546;13.428;2023-05-19T09:45:57;17.60;86.30
3944;DHT22;1986;52.546;13.428;2023-05-19T09:48:30;17.40;82.10
3944;DHT22;1986;52.546;13.428;2023-05-19T09:51:01;17.40;82.30
3944;DHT22;1986;52.546;13.428;2023-05-19T09:53:35;17.40;85.00
3944;DHT22;1986;52.546;13.428;2023-05-19T09:56:05;17.20;84.80
3944;DHT22;1986;52.546;13.428;2023-05-19T09:58:34;17.20;86.30
3944;DHT22;1986;52.546;13.428;2023-05-19T10:01:04;17.50;86.40
3944;DHT22;1986;52.546;13.428;2023-05-19T10:03:31;17.40;84.40
3944;DHT22;1986;52.546;13.428;2023-05-19T10:06:04;17.60;83.60
3944;DHT22;1986;52.546;13.428;2023-05-19T10:08:55;17.00;81.60
3944;DHT22;1986;52.546;13.428;2023-05-19T10:11:29;17.10;83.20
3944;DHT22;1986;52.546;13.428;2023-05-19T10:13:59;17.40;84.80
3944;DHT22;1986;52.546;13.428;2023-05-19T10:16:29;17.10;83.00
3944;DHT22;1986;52.546;13.428;2023-05-19T10:18:59;17.00;83.80
3944;DHT22;1986;52.546;13.428;2023-05-19T10:21:29;17.30;84.70
3944;DHT22;1986;52.546;13.428;2023-05-19T10:24:01;17.40;83.50
3944;DHT22;1986;52.546;13.428;2023-05-19T10:26:43;17.40;81.00
3944;DHT22;1986;52.546;13.428;2023-05-19T10:29:13;17.20;80.60
3944;DHT22;1986;52.546;13.428;2023-05-19T10:31:45;17.10;81.80
3944;DHT22;1986;52.546;13.428;2023-05-19T10:37:44;17.60;80.80
3944;DHT22;1986;52.546;13.428;2023-05-19T10:40:25;17.50;78.10
3944;DHT22;1986;52.546;13.428;2023-05-19T10:43:14;17.60;79.00
3944;DHT22;1986;52.546;13.428;2023-05-19T10:45:50;17.60;78.30
3944;DHT22;1986;52.546;13.428;2023-05-19T10:48:24;17.60;78.30
3944;DHT22;1986;52.546;13.428;2023-05-19T10:50:53;17.50;79.90
3944;DHT22;1986;52.546;13.428;2023-05-19T10:53:28;17.20;78.00
3944;DHT22;1986;52.546;13.428;2023-05-19T10:58:59;17.20;80.30
3944;DHT22;1986;52.546;13.428;2023-05-19T11:01:34;17.40;80.60
3944;DHT22;1986;52.546;13.428;2023-05-19T11:04:08;17.50;78.70
3944;DHT22;1986;52.546;13.428;2023-05-19T11:06:37;17.60;78.50
3944;DHT22;1986;52.546;13.428;2023-05-19T11:09:11;17.30;79.30
3944;DHT22;1986;52.546;13.428;2023-05-19T11:11:46;17.50;80.10
3944;DHT22;1986;52.546;13.428;2023-05-19T11:14:19;17.10;79.30
3944;DHT22;1986;52.546;13.428;2023-05-19T11:16:48;17.40;80.10
3944;DHT22;1986;52.546;13.428;2023-05-19T11:19:19;17.60;80.10
3944;DHT22;1986;52.546;13.428;2023-05-19T11:21:55;17.60;80.00
3944;DHT22;1986;52.546;13.428;2023-05-19T11:24:35;17.40;78.40
3944;DHT22;1986;52.546;13.428;2023-05-19T11:27:25;17.50;78.00
3944;DHT22;1986;52.546;13.428;2023-05-19T11:30:09;17.60;77.40
3944;DHT22;1986;52.546;13.428;2023-05-19T11:32:48;17.40;77.30
3944;DHT22;1986;52.546;13.428;2023-05-19T11:35:19;17.70;76.10
3944;DHT22;1986;52.546;13.428;2023-05-19T11:37:54;17.50;75.20
3944;DHT22;1986;52.546;13.428;2023-05-19T11:40:22;17.60;76.50
3944;DHT22;1986;52.546;13.428;2023-05-19T11:42:50;17.70;77.40
3944;DHT22;1986;52.546;13.428;2023-05-19T11:45:30;17.80;77.20
3944;DHT22;1986;52.546;13.428;2023-05-19T11:47:57;17.70;77.00
3944;DHT22;1986;52.546;13.428;2023-05-19T11:50:25;17.70;77.50
3944;DHT22;1986;52.546;13.428;2023-05-19T11:52:52;17.80;76.70
3944;DHT22;1986;52.546;13.428;2023-05-19T11:55:20;17.90;76.50
3944;DHT22;1986;52.546;13.428;2023-05-19T11:57:56;17.90;74.30
3944;DHT22;1986;52.546;13.428;2023-05-19T12:00:29;18.00;74.80
3944;DHT22;1986;52.546;13.428;2023-05-19T12:02:59;18.10;73.70
3944;DHT22;1986;52.546;13.428;2023-05-19T12:05:29;18.30;74.80
3944;DHT22;1986;52.546;13.428;2023-05-19T12:07:57;18.70;73.70
3944;DHT22;1986;52.546;13.428;2023-05-19T12:10:27;18.70;73.00
3944;DHT22;1986;52.546;13.428;2023-05-19T12:12:55;18.60;73.50
3944;DHT22;1986;52.546;13.428;2023-05-19T12:15:23;18.60;72.60
3944;DHT22;1986;52.546;13.428;2023-05-19T12:17:59;18.40;71.30
3944;DHT22;1986;52.546;13.428;2023-05-19T12:20:30;18.50;71.90
3944;DHT22;1986;52.546;13.428;2023-05-19T12:23:00;18.50;70.70
3944;DHT22;1986;52.546;13.428;2023-05-19T12:25:32;18.40;69.60
3944;DHT22;1986;52.546;13.428;2023-05-19T12:28:01;18.10;68.80
3944;DHT22;1986;52.546;13.428;2023-05-19T12:30:30;18.20;69.00
3944;DHT22;1986;52.546;13.428;2023-05-19T12:32:58;18.10;68.30
3944;DHT22;1986;52.546;13.428;2023-05-19T12:35:26;18.50;67.30
3944;DHT22;1986;52.546;13.428;2023-05-19T12:37:54;18.70;67.30
3944;DHT22;1986;52.546;13.428;2023-05-19T12:40:22;18.40;69.20
3944;DHT22;1986;52.546;13.428;2023-05-19T12:43:01;18.50;68.40
3944;DHT22;1986;52.546;13.428;2023-05-19T12:45:38;18.20;67.60
3944;DHT22;1986;52.546;13.428;2023-05-19T12:48:30;18.40;69.60
3944;DHT22;1986;52.546;13.428;2023-05-19T12:51:08;18.30;69.70
3944;DHT22;1986;52.546;13.428;2023-05-19T12:53:37;18.20;69.40
3944;DHT22;1986;52.546;13.428;2023-05-19T12:56:11;18.00;67.50
3944;DHT22;1986;52.546;13.428;2023-05-19T12:58:40;18.00;68.10
3944;DHT22;1986;52.546;13.428;2023-05-19T13:01:14;18.00;70.80
3944;DHT22;1986;52.546;13.428;2023-05-19T13:03:44;17.90;70.80
3944;DHT22;1986;52.546;13.428;2023-05-19T13:06:12;18.00;70.70
3944;DHT22;1986;52.546;13.428;2023-05-19T13:08:40;18.10;70.20
3944;DHT22;1986;52.546;13.428;2023-05-19T13:11:07;18.40;71.00
3944;DHT22;1986;52.546;13.428;2023-05-19T13:13:35;18.40;68.80
3944;DHT22;1986;52.546;13.428;2023-05-19T13:16:02;18.30;70.00
3944;DHT22;1986;52.546;13.428;2023-05-19T13:18:30;18.40;71.10
3944;DHT22;1986;52.546;13.428;2023-05-19T13:21:01;18.30;71.10
3944;DHT22;1986;52.546;13.428;2023-05-19T13:23:28;18.20;70.40
3944;DHT22;1986;52.546;13.428;2023-05-19T13:25:56;18.10;71.10
3944;DHT22;1986;52.546;13.428;2023-05-19T13:28:24;18.10;72.20
3944;DHT22;1986;52.546;13.428;2023-05-19T13:30:52;18.20;73.20
3944;DHT22;1986;52.546;13.428;2023-05-19T13:33:24;18.10;73.00
3944;DHT22;1986;52.546;13.428;2023-05-19T13:35:54;18.30;73.50
3944;DHT22;1986;52.546;13.428;2023-05-19T13:38:23;18.10;73.10
3944;DHT22;1986;52.546;13.428;2023-05-19T13:40:55;17.70;73.80
3944;DHT22;1986;52.546;13.428;2023-05-19T13:43:22;17.60;74.30
3944;DHT22;1986;52.546;13.428;2023-05-19T13:45:49;17.80;75.40
3944;DHT22;1986;52.546;13.428;2023-05-19T13:48:16;18.00;74.20
3944;DHT22;1986;52.546;13.428;2023-05-19T13:50:43;18.00;74.20
3944;DHT22;1986;52.546;13.428;2023-05-19T13:53:10;18.00;72.70
3944;DHT22;1986;52.546;13.428;2023-05-19T13:55:39;17.80;72.60
3944;DHT22;1986;52.546;13.428;2023-05-19T13:58:06;17.80;73.80
3944;DHT22;1986;52.546;13.428;2023-05-19T14:00:35;17.90;74.00
3944;DHT22;1986;52.546;13.428;2023-05-19T14:03:02;18.00;75.30
3944;DHT22;1986;52.546;13.428;2023-05-19T14:05:30;17.90;75.50
3944;DHT22;1986;52.546;13.428;2023-05-19T14:08:03;17.90;76.40
3944;DHT22;1986;52.546;13.428;2023-05-19T14:10:30;17.90;76.90
3944;DHT22;1986;52.546;13.428;2023-05-19T14:12:58;17.90;77.50
3944;DHT22;1986;52.546;13.428;2023-05-19T14:15:26;17.90;77.70
3944;DHT22;1986;52.546;13.428;2023-05-19T14:18:00;17.70;77.90
3944;DHT22;1986;52.546;13.428;2023-05-19T14:20:27;17.70;78.50
3944;DHT22;1986;52.546;13.428;2023-05-19T14:22:58;17.50;78.10
3944;DHT22;1986;52.546;13.428;2023-05-19T14:25:25;17.50;78.70
3944;DHT22;1986;52.546;13.428;2023-05-19T14:27:52;17.70;80.00
3944;DHT22;1986;52.546;13.428;2023-05-19T14:30:21;17.90;79.10
3944;DHT22;1986;52.546;13.428;2023-05-19T14:32:48;18.00;77.60
3944;DHT22;1986;52.546;13.428;2023-05-19T14:35:15;18.00;77.50
3944;DHT22;1986;52.546;13.428;2023-05-19T14:37:43;18.10;78.40
3944;DHT22;1986;52.546;13.428;2023-05-19T14:40:11;18.20;77.00
3944;DHT22;1986;52.546;13.428;2023-05-19T14:42:38;18.30;77.20
3944;DHT22;1986;52.546;13.428;2023-05-19T14:45:06;18.20;77.70
3944;DHT22;1986;52.546;13.428;2023-05-19T14:47:38;18.30;78.90
3944;DHT22;1986;52.546;13.428;2023-05-19T14:50:05;18.10;79.00
3944;DHT22;1986;52.546;13.428;2023-05-19T14:52:36;18.10;79.60
3944;DHT22;1986;52.546;13.428;2023-05-19T14:55:07;17.80;79.20
3944;DHT22;1986;52.546;13.428;2023-05-19T14:57:35;17.80;79.30
3944;DHT22;1986;52.546;13.428;2023-05-19T15:00:04;17.80;79.90
3944;DHT22;1986;52.546;13.428;2023-05-19T15:02:51;17.80;78.80
3944;DHT22;1986;52.546;13.428;2023-05-19T15:05:22;17.70;78.80
3944;DHT22;1986;52.546;13.428;2023-05-19T15:07:49;17.60;78.30
3944;DHT22;1986;52.546;13.428;2023-05-19T15:10:17;17.60;79.10
3944;DHT22;1986;52.546;13.428;2023-05-19T15:12:45;17.50;78.50
3944;DHT22;1986;52.546;13.428;2023-05-19T15:15:12;17.50;79.00
3944;DHT22;1986;52.546;13.428;2023-05-19T15:17:45;17.50;78.10
3944;DHT22;1986;52.546;13.428;2023-05-19T15:20:12;17.30;77.70
3944;DHT22;1986;52.546;13.428;2023-05-19T15:22:40;17.50;77.90
3944;DHT22;1986;52.546;13.428;2023-05-19T15:25:08;17.50;77.90
3944;DHT22;1986;52.546;13.428;2023-05-19T15:27:35;17.40;77.90
3944;DHT22;1986;52.546;13.428;2023-05-19T15:30:03;17.40;78.20
3944;DHT22;1986;52.546;13.428;2023-05-19T15:32:30;17.20;78.40
3944;DHT22;1986;52.546;13.428;2023-05-19T15:34:59;17.30;78.80
3944;DHT22;1986;52.546;13.428;2023-05-19T15:37:27;17.30;78.80
3944;DHT22;1986;52.546;13.428;2023-05-19T15:39:54;17.30;78.40
3944;DHT22;1986;52.546;13.428;2023-05-19T15:42:23;17.30;78.40
3944;DHT22;1986;52.546;13.428;2023-05-19T15:44:50;17.30;78.10
3944;DHT22;1986;52.546;13.428;2023-05-19T15:47:17;17.20;77.20
3944;DHT22;1986;52.546;13.428;2023-05-19T15:49:44;17.30;77.80
3944;DHT22;1986;52.546;13.428;2023-05-19T15:52:14;17.20;77.50
3944;DHT22;1986;52.546;13.428;2023-05-19T15:54:42;17.30;77.80
3944;DHT22;1986;52.546;13.428;2023-05-19T15:57:10;17.20;78.60
3944;DHT22;1986;52.546;13.428;2023-05-19T15:59:38;17.20;79.60
3944;DHT22;1986;52.546;13.428;2023-05-19T16:02:05;17.30;80.30
3944;DHT22;1986;52.546;13.428;2023-05-19T16:04:32;17.30;79.50
3944;DHT22;1986;52.546;13.428;2023-05-19T16:07:00;17.30;78.90
3944;DHT22;1986;52.546;13.428;2023-05-19T16:09:30;17.30;78.30
3944;DHT22;1986;52.546;13.428;2023-05-19T16:11:59;17.30;77.90
3944;DHT22;1986;52.546;13.428;2023-05-19T16:14:28;17.30;78.50
3944;DHT22;1986;52.546;13.428;2023-05-19T16:17:00;17.50;79.20
3944;DHT22;1986;52.546;13.428;2023-05-19T16:19:27;17.60;78.20